Time;durP1;ratioP1;P1;durP2;ratioP2;P2;SDS_P1;SDS_P2;PMS_P1;PMS_P2;Temp;Humidity;BMP_temperature;BMP_pressure;BME280_temperature;BME280_humidity;BME280_pressure;Samples;Min_cycle;Max_cycle;Signal;HPM_P1;HPM_P2
2022/08/08 00:00:13;;;;;;;4.80;4.03;;;15.10;99.90;;;;;;5090899;28;20380;-47
2022/08/08 00:03:16;;;;;;;5.95;4.47;;;15.00;99.90;;;;;;5090129;28;20399;-48
2022/08/08 00:05:48;;;;;;;4.57;4.10;;;14.90;99.90;;;;;;5090820;28;20059;-45
2022/08/08 00:08:51;;;;;;;6.65;4.35;;;14.80;99.90;;;;;;5089048;28;20081;-48
2022/08/08 00:11:27;;;;;;;5.93;3.85;;;14.90;99.90;;;;;;5090031;28;20028;-44
2022/08/08 00:14:11;;;;;;;6.00;3.75;;;14.80;99.90;;;;;;5090347;28;20027;-45
2022/08/08 00:16:55;;;;;;;6.22;4.35;;;14.80;99.90;;;;;;5090455;28;20028;-45
2022/08/08 00:19:34;;;;;;;4.97;3.90;;;14.90;99.90;;;;;;5090339;28;20031;-45
2022/08/08 00:22:09;;;;;;;8.30;4.38;;;14.80;99.90;;;;;;5089989;28;20114;-46
2022/08/08 00:24:46;;;;;;;5.93;4.65;;;14.90;99.90;;;;;;5090683;28;20026;-44
2022/08/08 00:27:14;;;;;;;6.07;4.28;;;14.80;99.90;;;;;;5089150;28;20024;-45
2022/08/08 00:30:04;;;;;;;5.18;4.22;;;14.80;99.90;;;;;;5090172;28;20039;-46
2022/08/08 00:32:55;;;;;;;6.10;4.87;;;14.80;99.90;;;;;;5089602;28;20077;-46
2022/08/08 00:35:58;;;;;;;5.65;4.55;;;14.70;99.90;;;;;;5089105;28;20027;-47
2022/08/08 00:38:48;;;;;;;6.05;4.43;;;14.70;99.90;;;;;;5090132;28;20055;-45
2022/08/08 00:41:21;;;;;;;5.63;4.72;;;14.60;99.90;;;;;;5089683;28;20025;-45
2022/08/08 00:44:23;;;;;;;6.07;4.82;;;14.60;99.90;;;;;;5090327;28;20024;-46
2022/08/08 00:47:15;;;;;;;9.93;4.97;;;14.60;99.90;;;;;;5090768;28;20388;-44
2022/08/08 00:50:08;;;;;;;6.72;5.00;;;14.60;99.90;;;;;;5090359;28;20024;-46
2022/08/08 00:52:58;;;;;;;6.45;4.35;;;14.50;99.90;;;;;;5089473;28;20031;-44
2022/08/08 00:56:16;;;;;;;5.68;4.68;;;14.40;99.90;;;;;;5089918;28;20039;-45
2022/08/08 00:59:43;;;;;;;5.68;4.47;;;14.30;99.90;;;;;;5089521;28;20036;-45
2022/08/08 01:02:50;;;;;;;5.97;4.65;;;14.40;99.90;;;;;;5089153;28;20391;-44
2022/08/08 01:05:57;;;;;;;6.65;4.93;;;14.30;99.90;;;;;;5089765;28;20174;-45
2022/08/08 01:08:51;;;;;;;11.32;4.80;;;14.30;99.90;;;;;;5088734;28;20034;-45
2022/08/08 01:11:36;;;;;;;7.20;4.18;;;14.30;99.90;;;;;;5089011;28;20031;-43
2022/08/08 01:14:43;;;;;;;7.35;4.40;;;14.30;99.90;;;;;;5089401;28;20096;-44
2022/08/08 01:17:18;;;;;;;6.38;4.43;;;14.30;99.90;;;;;;5088102;28;20085;-45
2022/08/08 01:20:22;;;;;;;7.10;4.70;;;14.30;99.90;;;;;;5089263;28;20483;-44
2022/08/08 01:23:35;;;;;;;7.22;4.63;;;14.30;99.90;;;;;;5045802;28;20068;-44
2022/08/08 01:26:27;;;;;;;7.38;4.72;;;14.30;99.90;;;;;;5089323;28;20643;-44
2022/08/08 01:29:15;;;;;;;8.02;5.05;;;14.30;99.90;;;;;;5089165;28;20023;-44
2022/08/08 01:32:33;;;;;;;7.85;5.13;;;14.20;99.90;;;;;;5088585;28;20137;-46
2022/08/08 01:35:25;;;;;;;6.68;4.95;;;14.10;99.90;;;;;;5089208;28;20020;-45
2022/08/08 01:37:57;;;;;;;5.43;4.22;;;14.00;99.90;;;;;;5089416;28;20028;-46
2022/08/08 01:40:28;;;;;;;6.90;4.40;;;13.90;99.90;;;;;;5089060;28;20432;-44
2022/08/08 01:43:25;;;;;;;5.88;4.75;;;13.80;99.90;;;;;;5088448;28;20024;-45
2022/08/08 01:46:23;;;;;;;7.35;4.50;;;13.70;99.90;;;;;;5085740;28;20039;-45
2022/08/08 01:49:28;;;;;;;6.07;4.80;;;13.70;99.90;;;;;;5088997;28;20573;-47
2022/08/08 01:52:07;;;;;;;5.53;4.75;;;13.70;99.90;;;;;;5088602;28;20097;-45
2022/08/08 01:55:00;;;;;;;6.45;5.20;;;13.80;99.90;;;;;;5089126;28;20099;-45
2022/08/08 01:57:40;;;;;;;7.57;5.38;;;13.80;99.90;;;;;;5089610;28;20035;-45
2022/08/08 02:00:12;;;;;;;7.27;4.73;;;13.70;99.90;;;;;;5088889;28;20023;-44
2022/08/08 02:03:06;;;;;;;6.43;5.00;;;13.80;99.90;;;;;;5088234;28;20604;-45
2022/08/08 02:06:18;;;;;;;8.15;4.55;;;13.80;99.90;;;;;;5087377;28;20475;-45
2022/08/08 02:08:50;;;;;;;6.50;4.93;;;13.90;99.90;;;;;;5045511;28;20033;-45
2022/08/08 02:11:30;;;;;;;5.65;4.57;;;13.70;99.90;;;;;;5084283;28;20028;-44
2022/08/08 02:14:24;;;;;;;7.07;5.18;;;13.70;99.90;;;;;;5088544;28;20044;-44
2022/08/08 02:17:09;;;;;;;6.60;5.82;;;13.60;99.90;;;;;;5088100;28;20039;-45
2022/08/08 02:20:06;;;;;;;5.82;4.78;;;13.50;99.90;;;;;;5088320;28;20035;-45
2022/08/08 02:23:10;;;;;;;6.85;4.65;;;13.40;99.90;;;;;;5088133;28;20016;-44
2022/08/08 02:25:47;;;;;;;6.80;5.20;;;13.40;99.90;;;;;;5086969;28;20431;-44
2022/08/08 02:28:19;;;;;;;6.57;4.90;;;13.30;99.90;;;;;;5088396;28;20027;-45
2022/08/08 02:30:47;;;;;;;6.13;4.53;;;13.20;99.90;;;;;;5087719;28;20063;-45
2022/08/08 02:33:32;;;;;;;6.43;5.22;;;13.20;99.90;;;;;;5072500;28;20025;-44
2022/08/08 02:35:58;;;;;;;5.65;5.05;;;13.10;99.90;;;;;;5068702;28;20025;-44
2022/08/08 02:38:54;;;;;;;7.32;4.88;;;13.10;99.90;;;;;;5068139;28;20505;-45
2022/08/08 02:41:50;;;;;;;5.60;4.70;;;13.10;99.90;;;;;;5067638;28;20753;-46
2022/08/08 02:44:53;;;;;;;7.32;5.53;;;13.10;99.90;;;;;;5068264;28;20103;-45
2022/08/08 02:47:19;;;;;;;7.68;5.65;;;13.00;99.90;;;;;;5067958;28;20020;-48
2022/08/08 02:50:11;;;;;;;6.45;5.07;;;13.20;99.90;;;;;;5068015;28;20051;-44
2022/08/08 02:53:04;;;;;;;13.45;5.95;;;13.20;99.90;;;;;;5067673;28;20376;-45
2022/08/08 02:56:07;;;;;;;6.95;5.28;;;13.20;99.90;;;;;;5068064;28;20019;-44
2022/08/08 02:59:29;;;;;;;5.88;4.78;;;13.10;99.90;;;;;;5068197;28;20178;-44
2022/08/08 03:02:12;;;;;;;10.82;4.60;;;13.10;99.90;;;;;;5067438;28;20025;-45
2022/08/08 03:04:56;;;;;;;6.60;5.22;;;13.10;99.90;;;;;;5068095;28;20060;-43
2022/08/08 03:08:00;;;;;;;7.50;5.78;;;13.00;99.90;;;;;;5068079;28;20038;-44
2022/08/08 03:11:03;;;;;;;8.73;5.78;;;12.90;99.90;;;;;;5068017;28;20104;-43
2022/08/08 03:13:44;;;;;;;8.18;5.68;;;13.00;99.90;;;;;;5068553;28;20020;-45
2022/08/08 03:16:26;;;;;;;9.02;6.85;;;13.10;99.90;;;;;;5068115;28;20032;-43
2022/08/08 03:19:11;;;;;;;7.38;6.68;;;13.10;99.90;;;;;;5066387;28;20028;-45
2022/08/08 03:21:37;;;;;;;7.25;6.07;;;13.10;99.90;;;;;;5065816;28;20458;-47
2022/08/08 03:24:02;;;;;;;6.65;5.53;;;13.10;99.90;;;;;;5067293;28;20036;-47
2022/08/08 03:26:31;;;;;;;6.68;5.60;;;13.10;99.90;;;;;;5067746;28;20035;-46
2022/08/08 03:29:02;;;;;;;6.93;5.53;;;13.00;99.90;;;;;;5067957;28;20040;-47
2022/08/08 03:34:29;;;;;;;;;;;13.00;99.90;;;;;;5028930;28;20026;-44
2022/08/08 03:36:55;;;;;;;8.65;6.20;;;13.00;99.90;;;;;;5061884;28;19966;-46
2022/08/08 03:39:21;;;;;;;8.43;5.97;;;13.00;99.90;;;;;;5070972;28;20103;-45
2022/08/08 03:41:47;;;;;;;8.25;5.93;;;13.00;99.90;;;;;;5070711;28;20021;-44
2022/08/08 03:44:12;;;;;;;8.90;6.38;;;13.00;99.90;;;;;;5071359;28;20204;-45
2022/08/08 03:46:46;;;;;;;9.85;6.45;;;13.00;99.90;;;;;;5071006;28;20097;-46
2022/08/08 03:49:19;;;;;;;10.05;6.00;;;13.00;99.90;;;;;;5070976;28;20036;-46
2022/08/08 03:51:46;;;;;;;7.60;5.82;;;13.00;99.90;;;;;;5070283;28;20502;-45
2022/08/08 03:54:11;;;;;;;6.88;5.28;;;12.90;99.90;;;;;;5070836;28;20043;-45
2022/08/08 03:56:37;;;;;;;7.30;5.93;;;12.80;99.90;;;;;;5069536;28;20475;-44
2022/08/08 03:59:03;;;;;;;8.00;6.03;;;12.70;99.90;;;;;;5070725;28;20506;-47
2022/08/08 04:01:36;;;;;;;7.68;5.82;;;12.70;99.90;;;;;;5070051;28;20029;-45
2022/08/08 04:04:02;;;;;;;8.25;5.95;;;12.60;99.90;;;;;;5070760;28;20020;-45
2022/08/08 04:06:28;;;;;;;8.48;6.05;;;12.60;99.90;;;;;;5070664;28;20035;-45
2022/08/08 04:08:53;;;;;;;7.57;6.25;;;12.60;99.90;;;;;;5069283;28;20123;-46
2022/08/08 04:11:19;;;;;;;7.45;6.22;;;12.60;99.90;;;;;;5070105;28;20029;-44
2022/08/08 04:13:44;;;;;;;7.53;5.72;;;12.60;99.90;;;;;;5070659;28;20028;-47
2022/08/08 04:16:10;;;;;;;7.28;5.68;;;12.50;99.90;;;;;;5070607;28;20504;-44
2022/08/08 04:18:35;;;;;;;8.15;5.57;;;12.50;99.90;;;;;;5070720;28;20455;-47
2022/08/08 04:21:01;;;;;;;8.73;6.07;;;12.60;99.90;;;;;;5069802;28;20044;-44
2022/08/08 04:23:26;;;;;;;6.68;5.70;;;12.60;99.90;;;;;;5070687;28;20103;-46
2022/08/08 04:25:52;;;;;;;7.70;6.20;;;12.60;99.90;;;;;;5069152;28;20495;-44
2022/08/08 04:28:17;;;;;;;6.68;5.47;;;12.70;99.90;;;;;;5070425;28;20082;-46
2022/08/08 04:30:43;;;;;;;8.90;6.22;;;12.80;99.90;;;;;;5069635;28;20028;-45
2022/08/08 04:33:08;;;;;;;8.75;6.05;;;12.80;99.90;;;;;;5070208;28;20028;-44
2022/08/08 04:35:34;;;;;;;9.27;6.25;;;12.80;99.90;;;;;;5069910;28;20016;-46
2022/08/08 04:37:59;;;;;;;8.70;6.43;;;12.90;99.90;;;;;;5069953;28;20456;-45
2022/08/08 04:40:25;;;;;;;8.57;6.10;;;13.00;99.90;;;;;;5069893;28;20031;-43
2022/08/08 04:42:51;;;;;;;7.88;6.25;;;13.00;99.90;;;;;;5069274;28;20028;-46
2022/08/08 04:45:16;;;;;;;8.15;5.78;;;13.10;99.90;;;;;;5069927;28;20043;-47
2022/08/08 04:47:42;;;;;;;9.07;6.60;;;13.10;99.90;;;;;;5069889;28;20060;-47
2022/08/08 04:50:08;;;;;;;9.65;6.10;;;13.20;99.90;;;;;;5069863;28;20027;-46
2022/08/08 04:52:33;;;;;;;8.50;6.40;;;13.20;99.90;;;;;;5069052;28;20109;-44
2022/08/08 04:54:59;;;;;;;7.95;6.28;;;13.30;99.90;;;;;;5068549;28;20016;-44
2022/08/08 04:57:24;;;;;;;8.23;5.85;;;13.30;99.90;;;;;;5069659;28;20020;-44
2022/08/08 04:59:50;;;;;;;8.77;6.70;;;13.40;99.90;;;;;;5069776;28;20076;-44
2022/08/08 05:02:16;;;;;;;7.70;5.85;;;13.40;99.90;;;;;;5069153;28;20137;-45
2022/08/08 05:04:42;;;;;;;8.43;6.00;;;13.40;99.90;;;;;;5069552;28;20078;-45
2022/08/08 05:07:07;;;;;;;9.55;6.55;;;13.50;99.90;;;;;;5069655;28;20028;-44
2022/08/08 05:09:33;;;;;;;10.02;6.93;;;13.50;99.90;;;;;;5069608;28;20029;-45
2022/08/08 05:12:00;;;;;;;7.45;6.35;;;13.60;99.90;;;;;;5068962;28;20048;-45
2022/08/08 05:14:26;;;;;;;9.68;6.70;;;13.60;99.90;;;;;;5067864;28;20107;-46
2022/08/08 05:16:51;;;;;;;9.77;6.30;;;13.60;99.90;;;;;;5069452;28;20038;-43
2022/08/08 05:19:17;;;;;;;9.02;6.15;;;13.70;99.90;;;;;;5069479;28;20016;-43
2022/08/08 05:21:43;;;;;;;7.60;5.95;;;13.70;99.90;;;;;;5068737;28;20032;-44
2022/08/08 05:24:10;;;;;;;9.18;6.15;;;13.70;99.90;;;;;;5068776;28;20024;-45
2022/08/08 05:26:37;;;;;;;7.85;6.40;;;13.80;99.90;;;;;;5067381;28;20093;-45
2022/08/08 05:29:07;;;;;;;11.60;6.63;;;13.80;99.90;;;;;;5068887;28;20052;-44
2022/08/08 05:31:35;;;;;;;7.37;5.77;;;13.80;99.90;;;;;;5067952;28;20426;-44
2022/08/08 05:34:28;;;;;;;7.18;6.10;;;13.90;99.90;;;;;;5065985;28;20017;-44
2022/08/08 05:36:55;;;;;;;8.85;6.05;;;13.90;99.90;;;;;;5067945;28;20028;-45
2022/08/08 05:39:22;;;;;;;6.25;5.45;;;13.90;99.90;;;;;;5067134;28;20495;-44
2022/08/08 05:41:52;;;;;;;6.10;5.22;;;14.00;99.90;;;;;;5066425;28;20392;-44
2022/08/08 05:44:23;;;;;;;7.80;5.68;;;14.00;99.90;;;;;;5068309;28;20029;-43
2022/08/08 05:46:52;;;;;;;7.85;5.70;;;14.10;99.90;;;;;;5068362;28;20073;-44
2022/08/08 05:49:18;;;;;;;8.13;5.60;;;14.10;99.90;;;;;;5068376;28;20013;-44
2022/08/08 05:51:45;;;;;;;7.57;5.03;;;14.10;99.90;;;;;;5067937;28;20043;-43
2022/08/08 05:54:11;;;;;;;7.68;5.72;;;14.20;99.90;;;;;;5068232;28;20021;-44
2022/08/08 05:56:39;;;;;;;7.38;5.15;;;14.30;99.90;;;;;;5068313;28;20020;-47
2022/08/08 05:59:09;;;;;;;8.20;5.28;;;14.30;99.90;;;;;;5068063;28;20492;-44
2022/08/08 06:01:39;;;;;;;7.30;5.45;;;14.40;99.90;;;;;;5067883;28;20038;-44
2022/08/08 06:04:09;;;;;;;8.02;5.72;;;14.40;99.90;;;;;;5067319;28;20051;-44
2022/08/08 06:06:38;;;;;;;5.75;4.50;;;14.50;99.90;;;;;;5068552;28;20098;-46
2022/08/08 06:09:04;;;;;;;9.55;6.20;;;14.60;99.90;;;;;;5068217;28;20028;-43
2022/08/08 06:11:34;;;;;;;6.32;4.88;;;14.60;99.90;;;;;;5066420;28;20381;-45
2022/08/08 06:14:05;;;;;;;6.28;5.28;;;14.70;99.90;;;;;;5066047;28;20031;-43
2022/08/08 06:16:34;;;;;;;6.30;5.38;;;14.80;99.90;;;;;;5067964;28;20563;-44
2022/08/08 06:19:00;;;;;;;7.32;5.65;;;14.80;99.90;;;;;;5068636;28;20032;-45
2022/08/08 06:21:27;;;;;;;9.13;6.20;;;14.90;99.90;;;;;;5067683;28;20078;-44
2022/08/08 06:23:52;;;;;;;4.82;4.30;;;15.00;99.90;;;;;;5066869;28;20025;-44
2022/08/08 06:26:19;;;;;;;7.30;4.93;;;15.10;99.90;;;;;;5068179;28;20029;-45
2022/08/08 06:28:57;;;;;;;6.07;5.10;;;15.10;99.90;;;;;;5068124;28;20392;-43
2022/08/08 06:31:24;;;;;;;6.78;5.28;;;15.30;99.90;;;;;;5068028;28;20424;-43
2022/08/08 06:34:14;;;;;;;9.52;5.60;;;15.30;99.90;;;;;;5066886;28;20039;-43
2022/08/08 06:36:42;;;;;;;7.80;5.13;;;15.40;99.90;;;;;;5068036;28;20024;-43
2022/08/08 06:39:10;;;;;;;5.13;4.50;;;15.50;99.90;;;;;;5068244;28;20058;-43
2022/08/08 06:41:50;;;;;;;7.85;4.40;;;15.60;99.90;;;;;;5067754;28;20032;-44
2022/08/08 06:44:17;;;;;;;6.43;5.03;;;15.70;99.90;;;;;;5068549;28;20030;-44
2022/08/08 06:46:43;;;;;;;5.00;4.13;;;15.80;99.90;;;;;;5068212;28;20024;-46
2022/08/08 06:49:10;;;;;;;10.35;5.38;;;15.80;99.90;;;;;;5067923;28;20032;-43
2022/08/08 06:51:35;;;;;;;8.48;5.13;;;16.00;99.90;;;;;;5067407;28;20032;-44
2022/08/08 06:54:02;;;;;;;6.13;4.32;;;16.10;99.90;;;;;;5068512;28;20024;-43
2022/08/08 06:56:29;;;;;;;8.05;4.90;;;16.20;99.90;;;;;;5067953;28;20365;-44
2022/08/08 06:58:55;;;;;;;7.45;5.32;;;16.40;99.90;;;;;;5066613;28;20024;-46
2022/08/08 07:01:24;;;;;;;6.45;4.50;;;16.40;99.90;;;;;;5067493;28;20040;-43
2022/08/08 07:04:09;;;;;;;5.97;4.35;;;16.60;99.90;;;;;;5066588;28;20416;-43
2022/08/08 07:06:41;;;;;;;6.63;4.72;;;16.60;99.90;;;;;;5068395;28;20024;-47
2022/08/08 07:09:24;;;;;;;5.35;4.13;;;16.70;99.90;;;;;;5071550;28;20025;-45
2022/08/08 07:11:51;;;;;;;6.13;4.63;;;16.90;99.90;;;;;;5070885;28;20186;-44
2022/08/08 07:14:22;;;;;;;5.28;4.38;;;17.00;99.30;;;;;;5071602;28;20029;-47
2022/08/08 07:17:15;;;;;;;4.35;3.92;;;17.10;99.30;;;;;;5070430;28;20312;-47
2022/08/08 07:20:01;;;;;;;4.18;3.70;;;17.20;98.70;;;;;;5070136;28;20071;-46
2022/08/08 07:22:31;;;;;;;8.63;4.05;;;17.30;98.60;;;;;;5071138;28;20031;-47
2022/08/08 07:25:03;;;;;;;4.65;3.92;;;17.40;98.00;;;;;;5070105;28;20027;-45
2022/08/08 07:27:36;;;;;;;6.10;4.40;;;17.50;97.90;;;;;;5048881;28;20029;-44
2022/08/08 07:30:05;;;;;;;6.20;4.03;;;17.60;97.70;;;;;;5050832;28;20021;-45
2022/08/08 07:32:31;;;;;;;7.28;4.18;;;17.70;97.50;;;;;;5050094;28;20025;-46
2022/08/08 07:35:00;;;;;;;6.93;4.55;;;17.90;97.20;;;;;;5049620;28;20029;-46
2022/08/08 07:37:27;;;;;;;8.48;4.60;;;18.00;97.10;;;;;;5051058;28;20013;-45
2022/08/08 07:39:57;;;;;;;5.50;4.30;;;18.20;97.20;;;;;;5070750;28;20076;-44
2022/08/08 07:42:23;;;;;;;8.43;4.70;;;18.40;97.00;;;;;;5070281;28;20028;-44
2022/08/08 07:44:49;;;;;;;4.72;3.65;;;18.50;96.70;;;;;;5070493;28;20052;-47
2022/08/08 07:47:15;;;;;;;7.45;4.32;;;18.60;96.90;;;;;;5070398;28;20503;-45
2022/08/08 07:49:41;;;;;;;5.35;3.80;;;18.80;96.90;;;;;;5075424;28;20035;-44
2022/08/08 07:52:12;;;;;;;14.55;4.53;;;19.00;96.40;;;;;;5086093;28;20068;-44
2022/08/08 07:55:03;;;;;;;4.57;3.85;;;19.20;95.90;;;;;;5090257;28;20040;-44
2022/08/08 07:58:07;;;;;;;6.10;4.30;;;19.40;95.80;;;;;;5058033;28;20036;-44
2022/08/08 08:00:44;;;;;;;4.95;3.85;;;19.60;95.00;;;;;;5072965;28;20482;-45
2022/08/08 08:03:11;;;;;;;5.88;3.92;;;19.90;94.30;;;;;;5073510;28;20055;-43
2022/08/08 08:05:42;;;;;;;5.38;3.55;;;20.20;94.00;;;;;;5064436;28;20021;-44
2022/08/08 08:08:17;;;;;;;;;;;20.40;92.80;;;;;;5067126;28;20279;-45
2022/08/08 08:10:50;;;;;;;5.18;3.70;;;20.70;91.30;;;;;;5069995;28;20008;-44
2022/08/08 08:13:23;;;;;;;3.97;3.28;;;21.00;91.50;;;;;;5087401;28;20074;-44
2022/08/08 08:16:01;;;;;;;5.78;4.40;;;21.20;91.00;;;;;;5090274;28;20024;-44
2022/08/08 08:18:32;;;;;;;7.75;3.88;;;21.50;90.10;;;;;;5076924;28;20028;-44
2022/08/08 08:21:01;;;;;;;3.50;3.20;;;21.80;89.50;;;;;;5076624;28;20495;-45
2022/08/08 08:23:26;;;;;;;3.33;2.97;;;22.10;84.40;;;;;;5083970;28;20107;-46
2022/08/08 08:25:52;;;;;;;4.53;3.28;;;22.50;85.30;;;;;;5083072;28;20558;-45
2022/08/08 08:28:20;;;;;;;5.90;3.05;;;22.80;84.40;;;;;;5090509;28;20506;-47
2022/08/08 08:30:45;;;;;;;6.40;2.97;;;23.40;81.10;;;;;;5089793;28;20024;-45
2022/08/08 08:33:11;;;;;;;5.20;2.80;;;24.40;77.10;;;;;;5090071;28;20031;-47
2022/08/08 08:35:36;;;;;;;4.97;3.53;;;25.60;74.30;;;;;;5087745;28;20020;-45
2022/08/08 08:38:02;;;;;;;3.17;2.92;;;27.00;69.30;;;;;;5078417;28;20407;-49
2022/08/08 08:40:30;;;;;;;3.65;2.50;;;28.50;62.70;;;;;;5089062;28;20031;-45
2022/08/08 08:42:56;;;;;;;5.82;2.50;;;29.90;59.40;;;;;;5077564;28;20448;-46
2022/08/08 08:45:22;;;;;;;3.03;2.22;;;31.00;53.50;;;;;;5088204;28;20433;-48
2022/08/08 08:47:50;;;;;;;2.85;2.28;;;31.40;52.00;;;;;;5089470;28;20020;-46
2022/08/08 08:50:16;;;;;;;2.50;2.30;;;32.10;50.10;;;;;;5082619;28;20008;-45
2022/08/08 08:52:43;;;;;;;2.85;2.10;;;33.10;46.90;;;;;;5069017;28;20107;-45
2022/08/08 08:55:13;;;;;;;4.97;2.40;;;33.30;45.40;;;;;;5069253;28;20048;-46
2022/08/08 08:57:41;;;;;;;2.53;2.28;;;34.50;45.10;;;;;;5066414;28;20519;-46
2022/08/08 09:00:09;;;;;;;3.92;1.90;;;35.40;44.30;;;;;;5069433;28;20417;-46
2022/08/08 09:02:35;;;;;;;1.67;1.50;;;35.50;41.30;;;;;;5068088;28;20067;-49
2022/08/08 09:05:04;;;;;;;2.22;1.77;;;36.00;40.30;;;;;;5067921;28;20031;-50
2022/08/08 09:07:33;;;;;;;4.17;2.23;;;36.30;40.40;;;;;;5067964;28;20056;-46
2022/08/08 09:10:00;;;;;;;6.82;1.85;;;36.30;39.70;;;;;;5066624;28;20040;-47
2022/08/08 09:12:26;;;;;;;5.25;2.47;;;36.90;39.00;;;;;;5066978;28;20020;-48
2022/08/08 09:14:54;;;;;;;2.35;1.52;;;37.20;39.70;;;;;;5068468;28;20112;-49
2022/08/08 09:17:23;;;;;;;2.20;1.60;;;37.70;39.10;;;;;;5068829;28;20029;-45
2022/08/08 09:20:00;;;;;;;1.85;1.50;;;38.20;39.50;;;;;;5066932;28;20032;-47
2022/08/08 09:22:26;;;;;;;1.70;1.52;;;37.50;37.00;;;;;;5071428;28;20017;-46
2022/08/08 09:24:53;;;;;;;4.68;2.25;;;37.10;38.10;;;;;;5069046;28;20024;-49
2022/08/08 09:27:20;;;;;;;1.77;1.67;;;37.50;37.50;;;;;;5058062;28;20033;-46
2022/08/08 09:30:07;;;;;;;2.17;1.83;;;36.30;38.40;;;;;;5063488;28;20447;-46
2022/08/08 09:32:42;;;;;;;1.95;1.75;;;37.40;38.20;;;;;;5067570;28;20027;-49
2022/08/08 09:35:10;;;;;;;3.67;1.50;;;38.30;38.00;;;;;;5068599;28;20020;-47
2022/08/08 09:37:43;;;;;;;4.78;1.60;;;38.90;37.60;;;;;;5069210;28;20032;-47
2022/08/08 09:40:11;;;;;;;3.55;2.00;;;38.30;37.40;;;;;;5067582;28;20032;-46
2022/08/08 09:42:42;;;;;;;2.93;2.10;;;39.10;36.80;;;;;;5066899;28;20028;-49
2022/08/08 09:45:12;;;;;;;3.35;1.98;;;39.60;36.90;;;;;;5068424;28;20263;-46
2022/08/08 09:47:39;;;;;;;2.95;1.88;;;39.80;36.90;;;;;;5068292;28;20554;-46
2022/08/08 09:50:10;;;;;;;1.80;1.65;;;39.80;35.60;;;;;;5067342;28;20495;-47
2022/08/08 09:52:40;;;;;;;4.55;2.08;;;39.70;35.60;;;;;;5067330;28;20017;-47
2022/08/08 09:55:06;;;;;;;6.90;2.40;;;40.20;36.50;;;;;;5068320;28;20023;-47
2022/08/08 09:57:35;;;;;;;2.97;2.05;;;40.80;35.00;;;;;;5068322;28;20395;-48
2022/08/08 10:00:08;;;;;;;2.35;1.88;;;40.90;35.40;;;;;;5065891;28;20016;-47
2022/08/08 10:02:37;;;;;;;2.60;1.90;;;40.80;34.70;;;;;;5067741;28;20091;-46
2022/08/08 10:05:13;;;;;;;3.55;1.90;;;40.60;34.70;;;;;;5065883;28;20012;-46
2022/08/08 10:07:50;;;;;;;7.68;3.72;;;40.00;34.90;;;;;;5068241;28;20025;-49
2022/08/08 10:10:35;;;;;;;4.20;2.50;;;40.70;34.20;;;;;;5068965;28;20056;-49
2022/08/08 10:13:22;;;;;;;6.07;3.22;;;40.40;34.60;;;;;;5064863;28;20020;-48
2022/08/08 10:15:50;;;;;;;2.95;2.10;;;39.90;35.20;;;;;;5066447;28;20025;-47
2022/08/08 10:18:34;;;;;;;4.35;2.50;;;40.20;35.30;;;;;;5068167;28;20521;-45
2022/08/08 10:21:06;;;;;;;2.10;1.70;;;37.80;33.70;;;;;;5065178;28;20029;-49
2022/08/08 10:23:43;;;;;;;5.30;2.60;;;38.00;35.00;;;;;;5066624;28;20024;-47
2022/08/08 10:26:24;;;;;;;3.40;1.70;;;39.70;35.50;;;;;;5066682;28;20042;-47
2022/08/08 10:29:00;;;;;;;2.30;1.55;;;39.10;34.70;;;;;;5067080;28;20028;-48
2022/08/08 10:34:16;;;;;;;1.70;1.60;;;39.20;34.20;;;;;;5067138;28;20067;-49
2022/08/08 10:36:43;;;;;;;4.17;2.10;;;39.10;34.20;;;;;;5065571;28;20039;-49
2022/08/08 10:39:10;;;;;;;2.42;1.75;;;38.70;35.30;;;;;;5062879;28;20107;-49
2022/08/08 10:41:36;;;;;;;2.47;1.50;;;38.70;35.40;;;;;;5067641;28;20059;-46
2022/08/08 10:44:04;;;;;;;1.92;1.75;;;40.10;33.90;;;;;;5072283;28;20044;-46
2022/08/08 10:46:30;;;;;;;2.72;1.75;;;39.90;33.60;;;;;;5069325;28;20028;-45
2022/08/08 10:48:57;;;;;;;3.85;1.70;;;39.80;34.70;;;;;;5084045;28;20408;-46
2022/08/08 10:51:34;;;;;;;4.80;2.70;;;39.50;34.60;;;;;;5091541;28;20028;-46
2022/08/08 10:54:00;;;;;;;1.60;1.50;;;39.90;34.30;;;;;;5084847;28;20021;-46
2022/08/08 10:56:32;;;;;;;2.47;1.67;;;39.90;33.40;;;;;;5082387;28;20476;-46
2022/08/08 10:59:04;;;;;;;2.03;1.55;;;40.10;33.60;;;;;;5073588;28;20442;-45
2022/08/08 11:01:31;;;;;;;4.15;2.15;;;39.10;34.30;;;;;;5070754;28;20025;-45
2022/08/08 11:03:59;;;;;;;2.30;1.60;;;39.80;34.80;;;;;;5069119;28;20204;-46
2022/08/08 11:06:29;;;;;;;2.38;1.58;;;39.80;34.90;;;;;;5069762;28;20489;-46
2022/08/08 11:09:07;;;;;;;2.47;1.73;;;39.90;34.30;;;;;;5071675;28;20025;-46
2022/08/08 11:11:43;;;;;;;2.72;1.70;;;40.40;33.70;;;;;;5073791;28;20031;-46
2022/08/08 11:14:10;;;;;;;1.95;1.67;;;40.30;34.10;;;;;;5071256;28;20563;-45
2022/08/08 11:16:38;;;;;;;3.95;2.20;;;39.80;33.60;;;;;;5069147;28;20032;-46
2022/08/08 11:19:04;;;;;;;3.38;2.15;;;40.10;34.80;;;;;;5070957;28;20020;-46
2022/08/08 11:21:33;;;;;;;2.88;2.05;;;40.50;34.00;;;;;;5081425;28;20107;-47
2022/08/08 11:24:03;;;;;;;3.67;1.83;;;40.90;33.50;;;;;;5090314;28;20016;-46
2022/08/08 11:26:32;;;;;;;3.20;1.90;;;40.00;33.50;;;;;;5085183;28;20514;-46
2022/08/08 11:29:02;;;;;;;;;;;39.20;33.90;;;;;;5086757;28;20517;-45
2022/08/08 11:31:38;;;;;;;6.47;1.80;;;37.20;34.90;;;;;;5091056;28;19911;-46
2022/08/08 11:34:05;;;;;;;3.17;2.35;;;35.10;35.90;;;;;;5091625;28;20032;-45
2022/08/08 11:36:32;;;;;;;2.63;1.90;;;34.60;38.00;;;;;;5091197;28;20020;-46
2022/08/08 11:38:58;;;;;;;2.40;2.00;;;34.20;38.90;;;;;;5091367;28;20029;-45
2022/08/08 11:41:25;;;;;;;3.13;2.08;;;32.90;38.20;;;;;;5090289;28;20035;-45
2022/08/08 11:43:53;;;;;;;3.58;1.90;;;33.80;39.10;;;;;;5091366;28;20085;-45
2022/08/08 11:46:23;;;;;;;3.28;2.42;;;34.90;37.60;;;;;;5091436;28;20031;-46
2022/08/08 11:48:49;;;;;;;2.03;1.55;;;35.40;37.20;;;;;;5079653;28;20523;-46
2022/08/08 11:51:17;;;;;;;3.38;2.47;;;36.60;36.40;;;;;;5087093;28;20290;-48
2022/08/08 11:53:43;;;;;;;2.08;1.60;;;36.90;36.20;;;;;;5080634;28;20129;-46
2022/08/08 11:56:21;;;;;;;3.58;2.15;;;36.30;36.90;;;;;;5082605;28;20114;-46
2022/08/08 11:58:48;;;;;;;2.03;1.75;;;36.50;36.30;;;;;;5091100;28;20052;-45
2022/08/08 12:01:14;;;;;;;3.92;1.80;;;36.50;34.90;;;;;;5090563;28;20031;-45
2022/08/08 12:03:48;;;;;;;4.32;1.77;;;37.20;34.90;;;;;;5086734;28;20037;-48
2022/08/08 12:06:16;;;;;;;3.03;1.80;;;36.40;35.80;;;;;;5079272;28;20432;-46
2022/08/08 12:08:41;;;;;;;2.92;1.77;;;35.40;36.90;;;;;;5087305;28;20032;-45
2022/08/08 12:11:12;;;;;;;2.38;1.95;;;34.40;36.70;;;;;;5076712;28;20021;-44
2022/08/08 12:13:39;;;;;;;4.82;2.30;;;34.40;38.10;;;;;;5050460;28;20023;-45
2022/08/08 12:16:16;;;;;;;4.68;1.92;;;34.50;38.80;;;;;;5064448;28;20111;-46
2022/08/08 12:18:47;;;;;;;3.13;2.10;;;34.70;38.60;;;;;;5058436;28;20060;-45
2022/08/08 12:21:21;;;;;;;3.33;2.47;;;34.30;38.30;;;;;;5073216;28;20043;-44
2022/08/08 12:23:47;;;;;;;2.55;2.15;;;34.10;38.20;;;;;;5069587;28;20032;-45
2022/08/08 12:26:14;;;;;;;2.95;2.00;;;34.30;39.10;;;;;;5075265;28;20039;-45
2022/08/08 12:28:40;;;;;;;2.22;1.77;;;33.20;37.80;;;;;;5090134;28;20451;-45
2022/08/08 12:31:08;;;;;;;2.53;1.90;;;33.50;39.80;;;;;;5081698;28;20020;-49
2022/08/08 12:33:33;;;;;;;2.85;2.22;;;33.60;39.30;;;;;;5081567;28;20387;-45
2022/08/08 12:36:12;;;;;;;3.22;1.90;;;33.90;40.60;;;;;;5083960;28;20020;-44
2022/08/08 12:38:48;;;;;;;3.67;2.22;;;33.50;39.90;;;;;;5074073;28;20020;-44
2022/08/08 12:41:14;;;;;;;2.20;2.00;;;32.90;39.90;;;;;;5084295;28;20379;-45
2022/08/08 12:43:39;;;;;;;4.22;2.15;;;32.90;39.50;;;;;;5081966;28;20032;-45
2022/08/08 12:46:13;;;;;;;3.15;1.90;;;32.80;38.80;;;;;;5090138;28;20479;-45
2022/08/08 12:48:41;;;;;;;4.53;2.03;;;32.90;39.60;;;;;;5079936;28;20022;-45
2022/08/08 12:51:17;;;;;;;2.20;1.95;;;32.90;39.70;;;;;;5082962;28;20035;-45
2022/08/08 12:53:58;;;;;;;3.83;2.00;;;32.80;39.60;;;;;;5078090;28;20159;-47
2022/08/08 12:56:38;;;;;;;3.10;2.03;;;32.40;39.30;;;;;;5068528;28;20077;-45
2022/08/08 12:59:18;;;;;;;3.03;2.15;;;32.30;40.20;;;;;;5074559;28;20270;-46
2022/08/08 13:02:00;;;;;;;4.38;2.15;;;32.40;40.10;;;;;;5070666;28;20470;-45
2022/08/08 13:04:28;;;;;;;5.20;1.85;;;32.50;39.90;;;;;;5079567;28;20063;-45
2022/08/08 13:06:55;;;;;;;5.72;2.17;;;32.40;39.10;;;;;;5086263;28;20026;-44
2022/08/08 13:09:35;;;;;;;4.82;2.45;;;32.30;38.90;;;;;;5077442;28;20035;-46
2022/08/08 13:12:14;;;;;;;3.72;2.08;;;32.40;40.40;;;;;;5088032;28;20214;-44
2022/08/08 13:15:07;;;;;;;1.50;1.40;;;32.20;38.80;;;;;;5083583;28;20020;-46
2022/08/08 13:17:33;;;;;;;5.45;1.63;;;32.00;39.10;;;;;;5079384;28;20024;-45
2022/08/08 13:19:59;;;;;;;2.22;1.88;;;32.10;39.20;;;;;;5084102;28;20032;-44
2022/08/08 13:22:25;;;;;;;3.80;2.33;;;31.90;40.10;;;;;;5075817;28;20368;-46
2022/08/08 13:24:51;;;;;;;5.95;2.00;;;31.30;40.20;;;;;;5088024;28;20036;-46
2022/08/08 13:27:26;;;;;;;3.72;2.10;;;31.40;40.30;;;;;;5082434;28;20040;-45
2022/08/08 13:29:57;;;;;;;3.72;2.10;;;30.60;40.50;;;;;;5078986;28;20036;-45